Time;durP1;ratioP1;P1;durP2;ratioP2;P2;SDS_P1;SDS_P2;PMS_P1;PMS_P2;Temp;Humidity;BMP_temperature;BMP_pressure;BME280_temperature;BME280_humidity;BME280_pressure;Samples;Min_cycle;Max_cycle;Signal;HPM_P1;HPM_P2
2022/06/04 00:01:40;;;;;;;14.77;8.53;;;12.90;12.20;;;;;;10369612;28;20470;-89
2022/06/04 00:07:02;;;;;;;12.85;8.52;;;12.90;12.90;;;;;;10369748;28;20280;-82
2022/06/04 00:18:03;;;;;;;13.05;9.68;;;12.80;15.70;;;;;;10328772;28;20279;-80
2022/06/04 00:23:26;;;;;;;11.02;7.45;;;12.70;13.60;;;;;;10344658;28;20242;-81
2022/06/04 00:28:47;;;;;;;12.57;7.68;;;12.60;22.60;;;;;;10328084;28;20202;-80
2022/06/04 00:34:09;;;;;;;11.40;7.88;;;12.60;31.30;;;;;;10347921;28;20211;-80
2022/06/04 00:39:31;;;;;;;11.32;7.05;;;12.50;29.60;;;;;;10328924;28;20203;-80
2022/06/04 00:45:20;;;;;;;13.23;7.03;;;12.40;28.80;;;;;;10387237;28;20207;-81
2022/06/04 00:50:42;;;;;;;12.83;7.47;;;12.30;31.80;;;;;;10383798;28;20198;-80
2022/06/04 00:56:21;;;;;;;8.90;6.83;;;12.30;38.60;;;;;;10367399;28;20490;-80
2022/06/04 01:02:02;;;;;;;13.27;9.15;;;12.10;43.70;;;;;;10380884;28;20604;-80
2022/06/04 01:07:47;;;;;;;17.23;9.13;;;12.20;57.10;;;;;;10381005;28;20429;-80
2022/06/04 01:13:30;;;;;;;14.27;8.70;;;12.20;55.80;;;;;;10382481;28;20236;-81
2022/06/04 01:19:03;;;;;;;16.97;8.33;;;12.20;54.20;;;;;;10366919;28;20205;-80
2022/06/04 01:24:48;;;;;;;10.30;7.60;;;12.10;60.10;;;;;;10382585;28;20231;-81
2022/06/04 01:30:18;;;;;;;12.80;8.65;;;12.10;59.90;;;;;;10357190;28;20193;-88
2022/06/04 01:36:11;;;;;;;10.65;7.82;;;12.10;55.80;;;;;;10328591;28;20262;-80
2022/06/04 01:42:00;;;;;;;8.70;7.03;;;12.00;59.20;;;;;;10187492;29;20263;-80
2022/06/04 01:47:22;;;;;;;10.93;7.40;;;12.10;59.40;;;;;;10193249;29;20223;-80
2022/06/04 01:59:46;;;;;;;12.73;7.60;;;12.00;56.90;;;;;;10115266;29;20193;-80
2022/06/04 02:05:12;;;;;;;11.17;7.50;;;12.00;80.90;;;;;;10099664;29;20292;-80
2022/06/04 02:10:40;;;;;;;10.13;7.43;;;12.00;74.40;;;;;;10112853;29;20272;-81
2022/06/04 02:16:30;;;;;;;9.53;6.90;;;11.90;69.00;;;;;;10205219;28;20213;-80
2022/06/04 02:21:51;;;;;;;12.67;7.87;;;11.90;68.30;;;;;;10298144;28;20271;-87
2022/06/04 02:27:13;;;;;;;10.30;7.83;;;11.90;76.10;;;;;;10294596;28;20449;-83
2022/06/04 02:32:43;;;;;;;10.90;6.90;;;11.90;78.00;;;;;;10363663;28;20204;-84
2022/06/04 02:38:23;;;;;;;12.83;7.60;;;11.90;70.40;;;;;;10367112;28;20201;-80
2022/06/04 02:44:20;;;;;;;11.53;7.00;;;12.00;71.70;;;;;;10394294;28;20223;-80
2022/06/04 02:49:53;;;;;;;14.83;7.63;;;11.80;62.80;;;;;;10268111;28;20249;-80
2022/06/04 02:55:25;;;;;;;10.25;7.80;;;11.80;72.70;;;;;;10310909;28;20239;-81
2022/06/04 03:00:51;;;;;;;14.40;9.60;;;11.80;79.80;;;;;;10294646;28;20316;-80
2022/06/04 03:06:28;;;;;;;12.70;8.27;;;11.60;68.30;;;;;;10310533;28;20209;-85
2022/06/04 03:11:49;;;;;;;13.47;8.90;;;11.70;64.40;;;;;;10282811;28;20315;-80
2022/06/04 03:17:12;;;;;;;15.63;8.77;;;11.80;77.30;;;;;;10278026;28;20249;-80
2022/06/04 03:22:35;;;;;;;12.17;8.27;;;12.00;85.60;;;;;;10311287;28;20236;-80
2022/06/04 03:27:56;;;;;;;11.33;7.50;;;12.10;74.20;;;;;;10333299;28;20192;-80
2022/06/04 03:33:20;;;;;;;10.73;8.00;;;12.10;73.20;;;;;;10357295;28;20204;-80
2022/06/04 03:38:41;;;;;;;12.15;8.77;;;12.30;71.90;;;;;;10370461;28;20200;-80
2022/06/04 03:44:03;;;;;;;14.90;9.02;;;12.40;67.70;;;;;;10386181;28;20245;-80
2022/06/04 03:49:24;;;;;;;11.35;8.40;;;12.40;81.90;;;;;;10383542;28;20275;-81
2022/06/04 03:54:55;;;;;;;10.33;7.37;;;12.40;71.10;;;;;;10401004;28;20199;-81
2022/06/04 04:00:49;;;;;;;10.15;7.18;;;12.40;74.00;;;;;;10400798;28;20543;-80
2022/06/04 04:06:19;;;;;;;9.95;8.45;;;12.50;77.80;;;;;;10355885;28;20210;-82
2022/06/04 04:11:41;;;;;;;16.60;13.38;;;12.60;79.00;;;;;;10382499;28;20226;-81
2022/06/04 04:17:02;;;;;;;19.35;12.63;;;12.60;78.60;;;;;;10369127;28;20503;-80
2022/06/04 04:22:24;;;;;;;13.18;9.98;;;12.70;77.50;;;;;;10368868;28;20302;-80
2022/06/04 04:27:46;;;;;;;11.30;8.70;;;12.70;78.90;;;;;;10384225;28;20192;-80
2022/06/04 04:33:07;;;;;;;14.30;9.93;;;12.90;81.30;;;;;;10367941;28;20427;-81
2022/06/04 04:38:29;;;;;;;12.30;9.75;;;12.90;82.80;;;;;;10368221;28;20198;-80
2022/06/04 04:43:51;;;;;;;12.55;8.35;;;13.00;82.30;;;;;;10326628;28;20283;-80
2022/06/04 04:49:12;;;;;;;10.88;8.05;;;13.20;77.40;;;;;;10344131;28;20266;-81
2022/06/04 04:54:34;;;;;;;8.80;6.43;;;13.30;81.30;;;;;;10340590;28;20248;-80
2022/06/04 04:59:55;;;;;;;11.73;6.88;;;13.30;76.10;;;;;;10340680;28;20199;-81
2022/06/04 05:05:17;;;;;;;7.05;5.07;;;13.50;79.40;;;;;;10343010;28;20424;-80
2022/06/04 05:10:39;;;;;;;6.53;4.78;;;13.60;70.80;;;;;;10338674;28;20249;-80
2022/06/04 05:16:00;;;;;;;7.78;5.45;;;13.90;65.50;;;;;;10367393;28;20269;-80
2022/06/04 05:21:26;;;;;;;7.50;5.30;;;14.00;65.40;;;;;;10390226;28;20242;-80
2022/06/04 05:26:47;;;;;;;6.30;5.05;;;14.30;59.60;;;;;;10410658;28;20200;-81
2022/06/04 05:32:12;;;;;;;9.30;5.57;;;14.50;60.60;;;;;;10379601;28;20203;-81
2022/06/04 05:37:33;;;;;;;6.18;4.82;;;14.70;51.40;;;;;;10365978;28;20200;-81
2022/06/04 05:42:55;;;;;;;9.00;5.00;;;15.00;70.10;;;;;;10396903;28;20222;-81
2022/06/04 05:48:17;;;;;;;6.60;4.10;;;15.20;63.60;;;;;;10382222;28;20192;-80
2022/06/04 05:53:39;;;;;;;10.32;5.82;;;15.50;66.30;;;;;;10352237;28;20207;-81
2022/06/04 05:59:03;;;;;;;5.28;4.40;;;15.70;73.00;;;;;;10378793;28;20495;-82
2022/06/04 06:04:27;;;;;;;5.65;3.40;;;16.10;91.20;;;;;;10365174;28;20232;-84
2022/06/04 06:09:48;;;;;;;5.38;3.55;;;16.40;96.00;;;;;;10351846;28;20239;-80
2022/06/04 06:15:10;;;;;;;4.30;2.80;;;16.60;97.40;;;;;;10366714;28;20549;-81
2022/06/04 06:20:33;;;;;;;5.53;3.33;;;16.80;94.30;;;;;;10381557;28;20389;-81
2022/06/04 06:25:54;;;;;;;4.57;3.08;;;17.00;81.80;;;;;;10351410;28;20204;-80
2022/06/04 06:31:21;;;;;;;6.38;3.67;;;17.40;84.50;;;;;;10364347;28;20192;-81
2022/06/04 06:36:43;;;;;;;5.72;3.85;;;17.80;80.00;;;;;;10365223;28;20217;-81
2022/06/04 06:42:04;;;;;;;6.55;3.72;;;18.20;62.00;;;;;;10363944;28;20263;-93
2022/06/04 06:47:40;;;;;;;6.47;3.38;;;18.80;2.70;;;;;;10365561;28;20197;-81
2022/06/04 06:53:02;;;;;;;4.78;2.90;;;19.60;1.00;;;;;;10359197;28;20203;-81
2022/06/04 06:58:22;;;;;;;5.78;3.50;;;20.20;1.00;;;;;;10372153;28;20216;-81
2022/06/04 07:03:44;;;;;;;7.40;3.30;;;20.70;1.00;;;;;;10358390;28;20232;-82
2022/06/04 07:09:10;;;;;;;4.28;2.88;;;21.10;1.00;;;;;;10371313;28;20229;-82
2022/06/04 07:14:31;;;;;;;4.65;3.05;;;21.50;1.00;;;;;;10367791;28;20205;-81
2022/06/04 07:19:52;;;;;;;5.60;2.35;;;21.90;1.00;;;;;;10374040;28;20243;-81
2022/06/04 07:25:14;;;;;;;6.20;2.83;;;22.00;1.00;;;;;;10357134;28;20229;-81
2022/06/04 07:30:35;;;;;;;3.90;2.80;;;21.80;1.00;;;;;;10384281;28;20477;-85
2022/06/04 07:35:57;;;;;;;6.57;2.97;;;21.30;1.00;;;;;;10370559;28;20224;-84
2022/06/04 07:41:21;;;;;;;5.43;3.67;;;21.00;1.00;;;;;;10369326;28;20220;-82
2022/06/04 07:46:43;;;;;;;5.90;3.60;;;21.30;1.00;;;;;;10352587;28;20197;-82
2022/06/04 07:52:04;;;;;;;3.28;2.50;;;22.00;1.00;;;;;;10371017;28;20204;-82
2022/06/04 07:57:25;;;;;;;7.38;3.65;;;22.60;1.00;;;;;;10387088;28;20189;-93
2022/06/04 08:02:47;;;;;;;5.82;3.17;;;23.00;1.00;;;;;;10385953;28;20223;-82
2022/06/04 08:08:09;;;;;;;5.20;3.28;;;23.50;1.00;;;;;;10369487;28;20559;-81
2022/06/04 08:13:30;;;;;;;8.23;3.90;;;23.70;1.00;;;;;;10333471;28;20232;-82
2022/06/04 08:18:53;;;;;;;9.90;3.00;;;23.70;1.00;;;;;;10344994;28;20190;-81
2022/06/04 08:30:13;;;;;;;4.40;2.65;;;25.10;1.00;;;;;;10373856;28;20511;-82
2022/06/04 08:35:35;;;;;;;7.45;2.53;;;25.40;99.90;;;;;;10370679;28;20260;-81
2022/06/04 08:41:01;;;;;;;3.53;2.33;;;25.40;1.00;;;;;;10369151;28;20541;-91
2022/06/04 08:46:26;;;;;;;7.55;3.20;;;25.40;1.00;;;;;;10382598;28;20211;-91
2022/06/04 08:51:47;;;;;;;3.70;2.53;;;25.50;1.00;;;;;;10367216;28;20224;-82
2022/06/04 09:03:11;;;;;;;4.80;2.20;;;24.90;1.00;;;;;;10370945;28;20224;-82
2022/06/04 09:08:35;;;;;;;6.40;2.10;;;24.90;99.90;;;;;;10385252;28;20527;-89
2022/06/04 09:14:24;;;;;;;2.92;2.10;;;24.80;99.90;;;;;;10352370;28;20500;-85
2022/06/04 09:19:58;;;;;;;3.70;1.92;;;25.30;99.90;;;;;;10328059;28;20297;-90
2022/06/04 09:25:23;;;;;;;4.55;1.83;;;25.70;99.90;;;;;;10357949;28;20300;-86
2022/06/04 09:31:07;;;;;;;3.30;2.08;;;26.20;99.90;;;;;;10369223;28;20194;-86
2022/06/04 09:36:32;;;;;;;3.75;2.25;;;26.80;99.90;;;;;;10373106;28;20507;-87
2022/06/04 09:47:27;;;;;;;3.17;2.10;;;27.20;99.90;;;;;;10344851;28;20198;-86
2022/06/04 09:53:02;;;;;;;7.63;2.13;;;27.30;99.90;;;;;;10327616;28;20256;-84
2022/06/04 09:58:32;;;;;;;5.32;2.53;;;27.00;99.90;;;;;;10349790;28;20194;-81
2022/06/04 10:04:13;;;;;;;5.50;2.42;;;27.00;99.90;;;;;;10352586;23;1220626;-83
2022/06/04 10:09:56;;;;;;;5.70;2.50;;;26.90;99.90;;;;;;10414148;28;20181;-81
2022/06/04 10:15:32;;;;;;;4.10;2.42;;;27.00;99.90;;;;;;10400641;28;20197;-86
2022/06/04 10:21:07;;;;;;;6.18;2.50;;;27.10;99.90;;;;;;10412189;28;20186;-84
2022/06/04 10:26:59;;;;;;;3.22;2.35;;;27.20;99.90;;;;;;10368542;28;20239;-90
2022/06/04 10:32:32;;;;;;;8.18;2.25;;;27.30;99.90;;;;;;10381344;28;20201;-91
2022/06/04 10:38:31;;;;;;;3.80;1.83;;;27.50;99.90;;;;;;10405179;28;20208;-82
2022/06/04 10:44:12;;;;;;;4.95;2.42;;;27.70;91.50;;;;;;10355047;28;20236;-86
2022/06/04 10:50:03;;;;;;;4.70;2.65;;;27.30;92.90;;;;;;10357734;28;20188;-84
2022/06/04 10:55:33;;;;;;;4.53;2.63;;;27.40;99.30;;;;;;10416289;28;20197;-87
2022/06/04 11:01:07;;;;;;;3.75;2.95;;;27.80;91.90;;;;;;10389398;28;20213;-85
2022/06/04 11:06:35;;;;;;;3.33;2.15;;;27.70;99.90;;;;;;10372848;28;20240;-81
2022/06/04 11:12:02;;;;;;;12.98;3.25;;;27.30;99.90;;;;;;10375244;28;20421;-90
2022/06/04 11:17:27;;;;;;;3.58;2.20;;;27.50;99.90;;;;;;10353199;28;20201;-83
2022/06/04 11:23:07;;;;;;;4.43;2.17;;;26.60;99.80;;;;;;10403641;28;20225;-82
2022/06/04 11:28:30;;;;;;;4.80;2.17;;;27.20;99.90;;;;;;10366029;28;20223;-90
2022/06/04 11:34:15;;;;;;;3.38;2.42;;;27.80;94.70;;;;;;10357755;28;20289;-93
2022/06/04 11:39:49;;;;;;;4.78;2.20;;;27.90;92.70;;;;;;10360325;28;20193;-84
2022/06/04 11:45:25;;;;;;;5.47;2.30;;;27.70;88.70;;;;;;10360731;28;20304;-91
2022/06/04 11:51:22;;;;;;;3.75;2.13;;;27.40;68.70;;;;;;10363554;28;20193;-85
2022/06/04 11:57:00;;;;;;;3.55;1.70;;;27.20;68.80;;;;;;10308867;28;20211;-84
2022/06/04 12:02:35;;;;;;;3.40;1.67;;;27.30;58.90;;;;;;10338211;28;20236;-87
2022/06/04 12:08:04;;;;;;;2.50;1.83;;;27.30;56.30;;;;;;10294974;28;20211;-83
2022/06/04 12:13:53;;;;;;;2.28;1.80;;;26.70;53.40;;;;;;10308287;28;20198;-94
2022/06/04 12:25:14;;;;;;;2.38;2.10;;;26.50;59.40;;;;;;10325385;28;20226;-82
2022/06/04 12:30:40;;;;;;;2.80;1.83;;;26.40;60.80;;;;;;10360405;28;20277;-92
2022/06/04 12:36:11;;;;;;;7.15;3.13;;;26.30;59.70;;;;;;10330930;28;20213;-86
2022/06/04 12:41:43;;;;;;;5.93;2.22;;;26.50;57.00;;;;;;10354947;28;20190;-91
2022/06/04 12:47:32;;;;;;;2.75;2.00;;;26.40;53.60;;;;;;10359443;28;20206;-91
2022/06/04 12:53:01;;;;;;;3.58;2.00;;;26.50;50.30;;;;;;10373685;28;20277;-86
2022/06/04 12:58:49;;;;;;;3.20;1.88;;;26.60;45.60;;;;;;10353350;28;20273;-94
2022/06/04 13:04:11;;;;;;;6.05;3.15;;;26.20;44.80;;;;;;10381020;28;20299;-84
2022/06/04 13:09:54;;;;;;;6.30;3.00;;;26.30;42.50;;;;;;10381299;28;20418;-95
2022/06/04 13:15:44;;;;;;;4.32;2.60;;;26.40;52.30;;;;;;10396670;28;20199;-93
2022/06/04 13:21:32;;;;;;;3.15;2.53;;;26.40;60.50;;;;;;10394122;28;20193;-95
2022/06/04 13:27:03;;;;;;;5.85;3.45;;;26.80;68.20;;;;;;10396832;28;20213;-89
2022/06/04 13:32:26;;;;;;;2.70;2.30;;;26.50;72.50;;;;;;10380822;28;20198;-94
2022/06/04 13:37:49;;;;;;;2.40;2.22;;;26.40;75.90;;;;;;10365468;28;20200;-88
2022/06/04 13:43:12;;;;;;;5.40;2.65;;;26.50;71.70;;;;;;10388040;28;20248;-82
2022/06/04 13:48:34;;;;;;;4.25;2.78;;;26.50;70.10;;;;;;10366636;28;20217;-91
2022/06/04 13:53:56;;;;;;;5.55;2.38;;;26.00;69.70;;;;;;10378014;28;20219;-89
2022/06/04 13:59:29;;;;;;;4.32;2.63;;;25.90;80.10;;;;;;10414417;28;20189;-92
2022/06/04 14:10:35;;;;;;;4.70;2.63;;;25.70;88.40;;;;;;10412283;28;20212;-91
2022/06/04 14:16:15;;;;;;;5.00;2.40;;;25.70;87.40;;;;;;10375130;28;20515;-95
2022/06/04 14:22:06;;;;;;;2.78;2.17;;;25.70;87.00;;;;;;10404391;28;20197;-92
2022/06/04 14:27:47;;;;;;;2.28;1.98;;;25.80;83.30;;;;;;10404380;28;20193;-91
2022/06/04 14:33:22;;;;;;;3.83;2.40;;;25.70;75.30;;;;;;10365554;28;20445;-89
2022/06/04 14:38:46;;;;;;;3.67;2.38;;;25.40;69.50;;;;;;10403521;28;20502;-82
2022/06/04 14:44:38;;;;;;;6.25;2.65;;;25.20;68.20;;;;;;10359399;28;20271;-87
2022/06/04 14:50:17;;;;;;;3.17;2.08;;;24.90;65.60;;;;;;10386629;28;20284;-82
2022/06/04 14:55:51;;;;;;;2.80;2.17;;;24.70;57.80;;;;;;10375843;28;20483;-85
2022/06/04 15:01:31;;;;;;;2.90;1.80;;;24.50;56.90;;;;;;10355455;28;20225;-82
2022/06/04 15:07:10;;;;;;;1.77;1.67;;;24.20;52.20;;;;;;10378863;28;20229;-82
2022/06/04 15:13:06;;;;;;;3.92;2.15;;;23.90;49.10;;;;;;10413203;28;20193;-85
2022/06/04 15:18:46;;;;;;;3.85;1.83;;;23.60;50.00;;;;;;10390265;28;20488;-82
2022/06/04 15:24:31;;;;;;;3.15;2.13;;;23.50;54.30;;;;;;10403077;28;20233;-85
2022/06/04 15:36:13;;;;;;;3.70;1.85;;;23.30;51.60;;;;;;10403945;28;20193;-84
2022/06/04 15:41:50;;;;;;;3.08;2.03;;;23.10;53.80;;;;;;10364906;28;20212;-88
2022/06/04 15:47:14;;;;;;;4.38;2.30;;;23.00;59.70;;;;;;10376560;28;20277;-82
2022/06/04 15:58:30;;;;;;;1.83;1.63;;;22.80;53.50;;;;;;10375271;28;20193;-82
2022/06/04 16:03:59;;;;;;;4.03;2.20;;;22.70;51.40;;;;;;10374781;28;20312;-86
2022/06/04 16:09:21;;;;;;;3.20;1.88;;;22.50;41.40;;;;;;10390517;28;20201;-83
2022/06/04 16:20:25;;;;;;;2.63;1.60;;;22.20;27.90;;;;;;10386712;28;20201;-81
2022/06/04 16:33:20;;;;;;;4.53;2.90;;;22.00;29.60;;;;;;10380104;28;20435;-82
2022/06/04 16:39:01;;;;;;;4.28;2.75;;;21.80;26.70;;;;;;10416139;28;20202;-81
2022/06/04 16:44:47;;;;;;;4.78;2.95;;;21.60;28.80;;;;;;10402459;28;20291;-87
2022/06/04 16:50:10;;;;;;;4.78;3.03;;;21.60;31.90;;;;;;10382544;28;20197;-84
2022/06/04 16:55:33;;;;;;;4.20;2.50;;;21.40;26.30;;;;;;10396504;28;20201;-90
2022/06/04 17:01:18;;;;;;;4.13;2.33;;;21.20;23.20;;;;;;10418363;28;20204;-81
2022/06/04 17:07:02;;;;;;;5.32;2.88;;;21.10;20.10;;;;;;10411277;28;20225;-81
2022/06/04 17:12:30;;;;;;;5.15;3.28;;;21.00;22.60;;;;;;10368997;28;20200;-82
2022/06/04 17:18:19;;;;;;;4.38;2.85;;;20.90;30.80;;;;;;10397472;28;20196;-84
2022/06/04 17:24:06;;;;;;;3.80;2.75;;;20.60;34.00;;;;;;10353640;28;20221;-81
2022/06/04 17:29:39;;;;;;;7.05;3.80;;;20.50;38.80;;;;;;10367051;28;20384;-82
2022/06/04 17:35:23;;;;;;;11.63;5.57;;;20.30;53.00;;;;;;10382375;28;20421;-84
2022/06/04 17:40:57;;;;;;;9.02;4.55;;;20.10;69.10;;;;;;10400466;28;20193;-84
2022/06/04 17:46:18;;;;;;;3.50;3.00;;;20.00;99.90;;;;;;10398216;28;20229;-81
2022/06/04 17:51:41;;;;;;;5.32;3.50;;;19.80;99.90;;;;;;10367654;28;20193;-81
2022/06/04 17:57:03;;;;;;;12.70;6.03;;;19.70;99.90;;;;;;10380792;28;20648;-83
2022/06/04 18:02:25;;;;;;;12.77;5.90;;;19.50;99.90;;;;;;10370427;28;20447;-81
2022/06/04 18:07:47;;;;;;;7.43;4.70;;;19.30;99.90;;;;;;10365910;28;20206;-80
2022/06/04 18:13:11;;;;;;;9.30;5.82;;;19.30;99.90;;;;;;10399697;28;20197;-80
2022/06/04 18:18:33;;;;;;;14.35;6.90;;;19.10;99.90;;;;;;10381683;28;20196;-81
2022/06/04 18:23:57;;;;;;;7.72;5.82;;;18.90;1.00;;;;;;10384033;28;20220;-93
2022/06/04 18:29:18;;;;;;;7.82;5.53;;;18.80;99.90;;;;;;10371257;28;20182;-82
2022/06/04 18:34:41;;;;;;;9.13;5.40;;;18.50;14.40;;;;;;10373403;28;20216;-95
2022/06/04 18:40:04;;;;;;;8.52;5.30;;;18.10;99.90;;;;;;10357342;28;20223;-81
2022/06/04 18:56:52;;;;;;;9.77;6.05;;;17.50;1.00;;;;;;10406035;28;20193;-80
2022/06/04 19:02:16;;;;;;;6.50;5.30;;;17.30;1.00;;;;;;10378645;28;20387;-83
2022/06/04 19:19:02;;;;;;;9.27;5.65;;;17.00;82.20;;;;;;10391928;28;20269;-84
2022/06/04 19:24:41;;;;;;;7.93;6.18;;;16.80;99.90;;;;;;10409396;28;20274;-84
2022/06/04 19:30:06;;;;;;;7.85;5.93;;;16.70;99.90;;;;;;10382729;28;20192;-81
2022/06/04 19:35:28;;;;;;;7.68;6.40;;;16.60;99.90;;;;;;10408560;28;20185;-82
2022/06/04 19:40:50;;;;;;;12.80;8.95;;;16.50;1.00;;;;;;10370762;28;20205;-81
2022/06/04 19:46:11;;;;;;;17.83;10.73;;;16.30;1.00;;;;;;10376934;28;20231;-81
2022/06/04 19:51:33;;;;;;;22.02;12.98;;;16.20;1.00;;;;;;10375109;28;20208;-80
2022/06/04 19:56:54;;;;;;;19.63;11.27;;;16.10;1.00;;;;;;10405344;28;20191;-80
2022/06/04 20:02:17;;;;;;;15.85;8.88;;;15.90;1.00;;;;;;10390394;28;20296;-81
2022/06/04 20:07:39;;;;;;;13.02;8.68;;;15.80;1.00;;;;;;10405036;28;20204;-80
2022/06/04 20:13:00;;;;;;;13.45;9.32;;;15.70;1.00;;;;;;10377294;28;20216;-82
2022/06/04 20:18:22;;;;;;;11.13;7.78;;;15.60;1.00;;;;;;10376562;28;20189;-92
2022/06/04 20:23:43;;;;;;;12.27;8.90;;;15.40;1.00;;;;;;10397004;28;20218;-82
2022/06/04 20:29:04;;;;;;;14.90;10.30;;;15.30;1.00;;;;;;10389803;28;20412;-87
2022/06/04 20:34:26;;;;;;;18.45;12.50;;;15.30;1.00;;;;;;10361622;28;20204;-90
2022/06/04 20:39:47;;;;;;;18.50;12.88;;;15.30;1.00;;;;;;10382636;28;20548;-85
2022/06/04 20:45:18;;;;;;;25.50;15.55;;;15.20;1.00;;;;;;10370643;28;20230;-80
2022/06/04 20:50:42;;;;;;;28.10;16.05;;;15.00;1.00;;;;;;10370696;28;20475;-80
2022/06/04 20:56:19;;;;;;;28.33;15.07;;;14.90;1.00;;;;;;10375441;28;20409;-82
2022/06/04 21:01:41;;;;;;;21.13;13.40;;;14.80;1.00;;;;;;10371156;28;20205;-80
2022/06/04 21:07:02;;;;;;;25.73;15.68;;;14.80;1.00;;;;;;10363034;28;20262;-82
2022/06/04 21:12:23;;;;;;;20.92;13.88;;;14.70;1.00;;;;;;10401332;28;20190;-80
2022/06/04 21:17:46;;;;;;;19.73;12.23;;;14.60;1.00;;;;;;10358719;28;20495;-82
2022/06/04 21:23:11;;;;;;;16.33;12.00;;;14.50;1.00;;;;;;10352232;28;20256;-84
2022/06/04 21:28:32;;;;;;;17.50;11.77;;;14.40;1.00;;;;;;10342752;28;20218;-86
2022/06/04 21:33:57;;;;;;;16.55;10.75;;;14.40;1.00;;;;;;10338364;28;20205;-84
2022/06/04 22:02:14;;;;;;;18.73;13.52;;;14.00;1.00;;;;;;10360141;28;20507;-89
2022/06/04 22:07:35;;;;;;;28.95;17.00;;;13.90;1.00;;;;;;10328550;28;20233;-94
2022/06/04 22:12:56;;;;;;;23.80;16.90;;;13.80;1.00;;;;;;10319925;28;20228;-91
2022/06/04 22:18:18;;;;;;;18.40;13.65;;;13.70;1.00;;;;;;10302166;28;20223;-92
2022/06/04 22:23:41;;;;;;;25.10;15.45;;;13.60;1.00;;;;;;10303979;28;20262;-95
2022/06/04 22:29:02;;;;;;;26.40;16.20;;;13.50;1.00;;;;;;10303933;28;20500;-92
2022/06/04 22:34:24;;;;;;;29.10;16.95;;;13.40;1.00;;;;;;10330306;28;20417;-88
2022/06/04 22:39:46;;;;;;;21.70;15.07;;;13.50;1.00;;;;;;10374957;28;20369;-95
2022/06/04 22:45:08;;;;;;;22.13;13.80;;;13.50;1.00;;;;;;10343230;28;20228;-81
2022/06/04 22:50:30;;;;;;;22.20;13.05;;;13.40;1.00;;;;;;10348425;28;20202;-82
2022/06/04 22:55:51;;;;;;;16.60;11.73;;;13.20;1.00;;;;;;10344891;28;20199;-82
2022/06/04 23:01:13;;;;;;;18.05;12.52;;;13.10;1.00;;;;;;10360576;28;20209;-80
2022/06/04 23:06:35;;;;;;;16.33;12.57;;;13.10;1.00;;;;;;10358396;28;20320;-82
2022/06/04 23:23:20;;;;;;;28.20;18.33;;;12.80;1.00;;;;;;10342869;28;20469;-93
2022/06/04 23:28:46;;;;;;;29.60;18.23;;;12.60;1.00;;;;;;10355511;28;20258;-94
2022/06/04 23:34:08;;;;;;;24.92;17.30;;;12.50;1.00;;;;;;10351499;28;20197;-93
2022/06/04 23:39:29;;;;;;;26.75;16.05;;;12.40;1.00;;;;;;10311693;28;20205;-94
2022/06/04 23:44:50;;;;;;;22.20;15.23;;;12.30;1.00;;;;;;10355186;28;20226;-93
2022/06/04 23:50:14;;;;;;;33.63;19.90;;;12.20;1.00;;;;;;10348412;28;20250;-92
2022/06/04 23:55:37;;;;;;;24.00;16.45;;;12.00;1.00;;;;;;10361726;28;20192;-90
